sensor_id;sensor_type;location;lat;lon;timestamp;pressure;altitude;pressure_sealevel;temperature;humidity
69751;BME280;57335;52.288;6.056;2022-12-07T00:01:43;101760.69;;;2.93;100.00
69751;BME280;57335;52.288;6.056;2022-12-07T00:04:12;101753.31;;;2.98;100.00
69751;BME280;57335;52.288;6.056;2022-12-07T00:06:40;101758.38;;;3.00;100.00
69751;BME280;57335;52.288;6.056;2022-12-07T00:09:11;101747.47;;;2.96;100.00
69751;BME280;57335;52.288;6.056;2022-12-07T00:11:38;101751.16;;;3.04;100.00
69751;BME280;57335;52.288;6.056;2022-12-07T00:14:05;101757.72;;;3.17;100.00
69751;BME280;57335;52.288;6.056;2022-12-07T00:16:33;101752.25;;;3.20;100.00
69751;BME280;57335;52.288;6.056;2022-12-07T00:19:00;101746.28;;;3.20;100.00
69751;BME280;57335;52.288;6.056;2022-12-07T00:21:33;101741.38;;;3.17;100.00
69751;BME280;57335;52.288;6.056;2022-12-07T00:24:00;101753.38;;;3.28;100.00
69751;BME280;57335;52.288;6.056;2022-12-07T00:26:32;101741.66;;;3.24;100.00
69751;BME280;57335;52.288;6.056;2022-12-07T00:29:01;101749.00;;;3.28;100.00
69751;BME280;57335;52.288;6.056;2022-12-07T00:31:32;101737.28;;;3.24;100.00
69751;BME280;57335;52.288;6.056;2022-12-07T00:33:59;101716.53;;;3.14;100.00
69751;BME280;57335;52.288;6.056;2022-12-07T00:36:26;101730.31;;;3.25;100.00
69751;BME280;57335;52.288;6.056;2022-12-07T00:38:54;101717.94;;;3.09;100.00
69751;BME280;57335;52.288;6.056;2022-12-07T00:41:23;101718.31;;;3.04;100.00
69751;BME280;57335;52.288;6.056;2022-12-07T00:43:50;101726.63;;;3.08;100.00
69751;BME280;57335;52.288;6.056;2022-12-07T00:46:18;101726.75;;;2.96;100.00
69751;BME280;57335;52.288;6.056;2022-12-07T00:48:45;101729.63;;;2.93;100.00
69751;BME280;57335;52.288;6.056;2022-12-07T00:51:14;101722.38;;;2.87;100.00
69751;BME280;57335;52.288;6.056;2022-12-07T00:53:41;101722.22;;;2.79;100.00
69751;BME280;57335;52.288;6.056;2022-12-07T00:56:23;101723.28;;;2.76;100.00
69751;BME280;57335;52.288;6.056;2022-12-07T00:58:54;101718.94;;;2.67;100.00
69751;BME280;57335;52.288;6.056;2022-12-07T01:01:21;101721.50;;;2.67;100.00
69751;BME280;57335;52.288;6.056;2022-12-07T01:03:48;101716.75;;;2.63;100.00
69751;BME280;57335;52.288;6.056;2022-12-07T01:06:15;101728.72;;;2.64;100.00
69751;BME280;57335;52.288;6.056;2022-12-07T01:08:42;101724.88;;;2.58;100.00
69751;BME280;57335;52.288;6.056;2022-12-07T01:11:12;101709.72;;;2.44;100.00
69751;BME280;57335;52.288;6.056;2022-12-07T01:13:39;101717.38;;;2.45;100.00
69751;BME280;57335;52.288;6.056;2022-12-07T01:16:06;101722.09;;;2.40;100.00
69751;BME280;57335;52.288;6.056;2022-12-07T01:18:35;101710.66;;;2.33;100.00
69751;BME280;57335;52.288;6.056;2022-12-07T01:21:13;101724.31;;;2.45;100.00
69751;BME280;57335;52.288;6.056;2022-12-07T01:23:40;101714.16;;;2.32;100.00
69751;BME280;57335;52.288;6.056;2022-12-07T01:26:12;101722.38;;;2.37;100.00
69751;BME280;57335;52.288;6.056;2022-12-07T01:28:39;101728.59;;;2.34;100.00
69751;BME280;57335;52.288;6.056;2022-12-07T01:31:17;101729.69;;;2.32;100.00
69751;BME280;57335;52.288;6.056;2022-12-07T01:33:47;101716.34;;;2.27;100.00
69751;BME280;57335;52.288;6.056;2022-12-07T01:36:22;101713.31;;;2.22;100.00
69751;BME280;57335;52.288;6.056;2022-12-07T01:38:50;101721.19;;;2.20;100.00
69751;BME280;57335;52.288;6.056;2022-12-07T01:41:18;101717.91;;;2.18;100.00
69751;BME280;57335;52.288;6.056;2022-12-07T01:46:39;101727.63;;;2.26;100.00
69751;BME280;57335;52.288;6.056;2022-12-07T01:49:08;101723.41;;;2.25;100.00
69751;BME280;57335;52.288;6.056;2022-12-07T01:51:38;101717.69;;;2.21;100.00
69751;BME280;57335;52.288;6.056;2022-12-07T01:54:07;101702.09;;;2.11;100.00
69751;BME280;57335;52.288;6.056;2022-12-07T01:56:34;101729.53;;;2.24;100.00
69751;BME280;57335;52.288;6.056;2022-12-07T01:59:01;101709.75;;;2.13;100.00
69751;BME280;57335;52.288;6.056;2022-12-07T02:01:27;101727.91;;;2.23;100.00
69751;BME280;57335;52.288;6.056;2022-12-07T02:03:55;101714.53;;;2.17;100.00
69751;BME280;57335;52.288;6.056;2022-12-07T02:06:24;101712.19;;;2.14;100.00
69751;BME280;57335;52.288;6.056;2022-12-07T02:08:52;101707.28;;;2.11;100.00
69751;BME280;57335;52.288;6.056;2022-12-07T02:11:19;101705.50;;;2.12;100.00
69751;BME280;57335;52.288;6.056;2022-12-07T02:13:47;101716.28;;;2.17;100.00
69751;BME280;57335;52.288;6.056;2022-12-07T02:21:37;101719.41;;;2.11;100.00
69751;BME280;57335;52.288;6.056;2022-12-07T02:29:40;101719.91;;;2.05;100.00
69751;BME280;57335;52.288;6.056;2022-12-07T02:32:40;101705.56;;;1.91;100.00
69751;BME280;57335;52.288;6.056;2022-12-07T02:37:50;101707.44;;;1.89;100.00
69751;BME280;57335;52.288;6.056;2022-12-07T02:40:29;101720.09;;;1.92;100.00
69751;BME280;57335;52.288;6.056;2022-12-07T02:43:16;101706.88;;;1.85;100.00
69751;BME280;57335;52.288;6.056;2022-12-07T02:45:45;101721.59;;;1.94;100.00
69751;BME280;57335;52.288;6.056;2022-12-07T02:48:15;101721.59;;;1.94;100.00
69751;BME280;57335;52.288;6.056;2022-12-07T02:50:50;101705.56;;;1.91;100.00
69751;BME280;57335;52.288;6.056;2022-12-07T02:53:33;101707.53;;;2.08;100.00
69751;BME280;57335;52.288;6.056;2022-12-07T03:04:43;101724.69;;;2.40;100.00
69751;BME280;57335;52.288;6.056;2022-12-07T03:07:25;101714.47;;;2.38;100.00
69751;BME280;57335;52.288;6.056;2022-12-07T03:10:03;101725.94;;;2.46;100.00
69751;BME280;57335;52.288;6.056;2022-12-07T03:15:55;101737.09;;;2.46;100.00
69751;BME280;57335;52.288;6.056;2022-12-07T03:18:26;101722.66;;;2.44;100.00
69751;BME280;57335;52.288;6.056;2022-12-07T03:20:58;101723.50;;;2.54;100.00
69751;BME280;57335;52.288;6.056;2022-12-07T03:23:26;101710.44;;;2.55;100.00
69751;BME280;57335;52.288;6.056;2022-12-07T03:25:58;101715.78;;;2.64;100.00
69751;BME280;57335;52.288;6.056;2022-12-07T03:28:30;101708.81;;;2.64;100.00
69751;BME280;57335;52.288;6.056;2022-12-07T03:31:03;101695.06;;;2.64;100.00
69751;BME280;57335;52.288;6.056;2022-12-07T03:33:44;101697.13;;;2.70;100.00
69751;BME280;57335;52.288;6.056;2022-12-07T03:36:29;101705.34;;;2.75;100.00
69751;BME280;57335;52.288;6.056;2022-12-07T03:41:41;101698.25;;;2.77;100.00
69751;BME280;57335;52.288;6.056;2022-12-07T03:44:11;101676.19;;;2.73;100.00
69751;BME280;57335;52.288;6.056;2022-12-07T03:46:45;101685.03;;;2.80;100.00
69751;BME280;57335;52.288;6.056;2022-12-07T03:49:32;101692.94;;;2.88;100.00
69751;BME280;57335;52.288;6.056;2022-12-07T03:54:59;101697.97;;;2.80;100.00
69751;BME280;57335;52.288;6.056;2022-12-07T03:57:29;101701.91;;;2.74;100.00
69751;BME280;57335;52.288;6.056;2022-12-07T03:59:57;101693.72;;;2.69;100.00
69751;BME280;57335;52.288;6.056;2022-12-07T04:02:26;101702.06;;;2.73;100.00
69751;BME280;57335;52.288;6.056;2022-12-07T04:04:54;101708.44;;;2.69;100.00
69751;BME280;57335;52.288;6.056;2022-12-07T04:07:21;101710.47;;;2.65;100.00
69751;BME280;57335;52.288;6.056;2022-12-07T04:09:48;101704.78;;;2.71;100.00
69751;BME280;57335;52.288;6.056;2022-12-07T04:12:14;101704.50;;;2.74;100.00
69751;BME280;57335;52.288;6.056;2022-12-07T04:14:41;101684.63;;;2.75;100.00
69751;BME280;57335;52.288;6.056;2022-12-07T04:17:07;101690.31;;;2.78;100.00
69751;BME280;57335;52.288;6.056;2022-12-07T04:19:34;101680.91;;;2.68;100.00
69751;BME280;57335;52.288;6.056;2022-12-07T04:22:02;101684.47;;;2.67;100.00
69751;BME280;57335;52.288;6.056;2022-12-07T04:24:29;101691.28;;;2.68;100.00
69751;BME280;57335;52.288;6.056;2022-12-07T04:26:56;101694.66;;;2.58;100.00
69751;BME280;57335;52.288;6.056;2022-12-07T04:29:23;101677.75;;;2.45;100.00
69751;BME280;57335;52.288;6.056;2022-12-07T04:31:50;101674.97;;;2.36;100.00
69751;BME280;57335;52.288;6.056;2022-12-07T04:34:17;101696.75;;;2.34;100.00
69751;BME280;57335;52.288;6.056;2022-12-07T04:36:44;101673.41;;;2.14;100.00
69751;BME280;57335;52.288;6.056;2022-12-07T04:41:50;101688.44;;;1.99;100.00
69751;BME280;57335;52.288;6.056;2022-12-07T04:44:17;101684.59;;;1.94;100.00
69751;BME280;57335;52.288;6.056;2022-12-07T04:46:44;101673.41;;;1.84;100.00
69751;BME280;57335;52.288;6.056;2022-12-07T04:49:12;101672.69;;;1.82;100.00
69751;BME280;57335;52.288;6.056;2022-12-07T04:51:39;101674.47;;;1.81;100.00
69751;BME280;57335;52.288;6.056;2022-12-07T04:54:06;101672.28;;;1.76;100.00
69751;BME280;57335;52.288;6.056;2022-12-07T04:56:32;101670.88;;;1.72;100.00
69751;BME280;57335;52.288;6.056;2022-12-07T04:58:59;101680.97;;;1.75;100.00
69751;BME280;57335;52.288;6.056;2022-12-07T05:01:25;101674.66;;;1.68;100.00
69751;BME280;57335;52.288;6.056;2022-12-07T05:03:52;101679.59;;;1.71;100.00
69751;BME280;57335;52.288;6.056;2022-12-07T05:06:19;101685.97;;;1.67;100.00
69751;BME280;57335;52.288;6.056;2022-12-07T05:08:45;101677.50;;;1.65;100.00
69751;BME280;57335;52.288;6.056;2022-12-07T05:11:12;101691.31;;;1.75;100.00
69751;BME280;57335;52.288;6.056;2022-12-07T05:13:39;101685.63;;;1.82;100.00
69751;BME280;57335;52.288;6.056;2022-12-07T05:16:05;101684.41;;;1.86;100.00
69751;BME280;57335;52.288;6.056;2022-12-07T05:18:32;101681.28;;;1.82;100.00
69751;BME280;57335;52.288;6.056;2022-12-07T05:20:58;101692.47;;;1.92;100.00
69751;BME280;57335;52.288;6.056;2022-12-07T05:23:24;101690.56;;;1.94;100.00
69751;BME280;57335;52.288;6.056;2022-12-07T05:25:51;101681.31;;;1.92;100.00
69751;BME280;57335;52.288;6.056;2022-12-07T05:28:17;101686.66;;;2.00;100.00
69751;BME280;57335;52.288;6.056;2022-12-07T05:30:44;101683.28;;;1.99;100.00
69751;BME280;57335;52.288;6.056;2022-12-07T05:33:10;101687.34;;;2.02;100.00
69751;BME280;57335;52.288;6.056;2022-12-07T05:35:36;101676.59;;;1.97;100.00
69751;BME280;57335;52.288;6.056;2022-12-07T05:38:03;101683.16;;;2.01;100.00
69751;BME280;57335;52.288;6.056;2022-12-07T05:40:29;101677.53;;;1.96;100.00
69751;BME280;57335;52.288;6.056;2022-12-07T05:42:56;101677.03;;;2.02;100.00
69751;BME280;57335;52.288;6.056;2022-12-07T05:45:29;101663.69;;;1.97;100.00
69751;BME280;57335;52.288;6.056;2022-12-07T05:47:56;101673.50;;;2.03;100.00
69751;BME280;57335;52.288;6.056;2022-12-07T05:50:22;101671.59;;;2.05;100.00
69751;BME280;57335;52.288;6.056;2022-12-07T05:52:49;101670.78;;;2.05;100.00
69751;BME280;57335;52.288;6.056;2022-12-07T05:55:15;101668.31;;;2.03;100.00
69751;BME280;57335;52.288;6.056;2022-12-07T05:57:42;101672.28;;;2.07;100.00
69751;BME280;57335;52.288;6.056;2022-12-07T06:00:08;101674.88;;;2.07;100.00
69751;BME280;57335;52.288;6.056;2022-12-07T06:02:35;101663.97;;;2.04;100.00
69751;BME280;57335;52.288;6.056;2022-12-07T06:05:01;101658.50;;;1.97;100.00
69751;BME280;57335;52.288;6.056;2022-12-07T06:07:28;101664.25;;;2.01;100.00
69751;BME280;57335;52.288;6.056;2022-12-07T06:09:54;101656.56;;;1.89;100.00
69751;BME280;57335;52.288;6.056;2022-12-07T06:12:26;101665.69;;;1.93;100.00
69751;BME280;57335;52.288;6.056;2022-12-07T06:15:00;101666.09;;;1.89;100.00
69751;BME280;57335;52.288;6.056;2022-12-07T06:17:27;101672.47;;;1.85;100.00
69751;BME280;57335;52.288;6.056;2022-12-07T06:19:53;101659.38;;;1.76;100.00
69751;BME280;57335;52.288;6.056;2022-12-07T06:22:20;101670.63;;;1.75;100.00
69751;BME280;57335;52.288;6.056;2022-12-07T06:24:46;101670.19;;;1.70;100.00
69751;BME280;57335;52.288;6.056;2022-12-07T06:27:13;101668.78;;;1.66;100.00
69751;BME280;57335;52.288;6.056;2022-12-07T06:29:39;101663.44;;;1.58;100.00
69751;BME280;57335;52.288;6.056;2022-12-07T06:32:06;101667.22;;;1.54;100.00
69751;BME280;57335;52.288;6.056;2022-12-07T06:34:33;101656.47;;;1.49;100.00
69751;BME280;57335;52.288;6.056;2022-12-07T06:36:59;101659.88;;;1.49;100.00
69751;BME280;57335;52.288;6.056;2022-12-07T06:39:27;101644.81;;;1.33;100.00
69751;BME280;57335;52.288;6.056;2022-12-07T06:41:54;101661.19;;;1.44;100.00
69751;BME280;57335;52.288;6.056;2022-12-07T06:44:22;101664.28;;;1.37;100.00
69751;BME280;57335;52.288;6.056;2022-12-07T06:46:49;101666.97;;;1.36;100.00
69751;BME280;57335;52.288;6.056;2022-12-07T06:49:16;101675.69;;;1.35;100.00
69751;BME280;57335;52.288;6.056;2022-12-07T06:51:43;101669.25;;;1.29;100.00
69751;BME280;57335;52.288;6.056;2022-12-07T06:54:12;101668.56;;;1.27;100.00
69751;BME280;57335;52.288;6.056;2022-12-07T06:56:39;101659.09;;;1.16;100.00
69751;BME280;57335;52.288;6.056;2022-12-07T06:59:12;101680.66;;;1.27;100.00
69751;BME280;57335;52.288;6.056;2022-12-07T07:01:38;101683.34;;;1.25;100.00
69751;BME280;57335;52.288;6.056;2022-12-07T07:04:05;101677.72;;;1.20;100.00
69751;BME280;57335;52.288;6.056;2022-12-07T07:06:32;101689.59;;;1.23;100.00
69751;BME280;57335;52.288;6.056;2022-12-07T07:08:59;101686.44;;;1.19;100.00
69751;BME280;57335;52.288;6.056;2022-12-07T07:11:25;101675.91;;;1.11;100.00
69751;BME280;57335;52.288;6.056;2022-12-07T07:13:52;101683.19;;;1.06;100.00
69751;BME280;57335;52.288;6.056;2022-12-07T07:16:18;101690.56;;;1.10;100.00
69751;BME280;57335;52.288;6.056;2022-12-07T07:18:45;101683.19;;;1.06;100.00
69751;BME280;57335;52.288;6.056;2022-12-07T07:21:11;101690.22;;;1.04;100.00
69751;BME280;57335;52.288;6.056;2022-12-07T07:23:38;101701.38;;;1.04;100.00
69751;BME280;57335;52.288;6.056;2022-12-07T07:29:18;101705.81;;;1.02;100.00
69751;BME280;57335;52.288;6.056;2022-12-07T07:31:44;101699.75;;;1.03;100.00
69751;BME280;57335;52.288;6.056;2022-12-07T07:36:54;101701.94;;;1.08;100.00
69751;BME280;57335;52.288;6.056;2022-12-07T07:39:20;101700.75;;;1.12;100.00
69751;BME280;57335;52.288;6.056;2022-12-07T07:41:47;101703.81;;;1.17;100.00
69751;BME280;57335;52.288;6.056;2022-12-07T07:44:13;101716.91;;;1.25;100.00
69751;BME280;57335;52.288;6.056;2022-12-07T07:46:39;101699.28;;;1.30;100.00
69751;BME280;57335;52.288;6.056;2022-12-07T07:49:06;101692.19;;;1.44;100.00
69751;BME280;57335;52.288;6.056;2022-12-07T07:51:32;101687.31;;;1.50;100.00
69751;BME280;57335;52.288;6.056;2022-12-07T07:53:59;101701.56;;;1.66;100.00
69751;BME280;57335;52.288;6.056;2022-12-07T07:56:25;101687.78;;;1.76;100.00
69751;BME280;57335;52.288;6.056;2022-12-07T07:58:52;101684.53;;;1.84;100.00
69751;BME280;57335;52.288;6.056;2022-12-07T08:01:18;101691.84;;;2.00;100.00
69751;BME280;57335;52.288;6.056;2022-12-07T08:03:48;101698.84;;;2.09;100.00
69751;BME280;57335;52.288;6.056;2022-12-07T08:06:14;101703.22;;;2.18;100.00
69751;BME280;57335;52.288;6.056;2022-12-07T08:08:41;101707.91;;;2.25;100.00
69751;BME280;57335;52.288;6.056;2022-12-07T08:11:08;101709.97;;;2.31;100.00
69751;BME280;57335;52.288;6.056;2022-12-07T08:13:35;101707.91;;;2.34;100.00
69751;BME280;57335;52.288;6.056;2022-12-07T08:16:07;101715.03;;;2.42;100.00
69751;BME280;57335;52.288;6.056;2022-12-07T08:18:38;101711.22;;;2.46;100.00
69751;BME280;57335;52.288;6.056;2022-12-07T08:21:05;101703.91;;;2.51;100.00
69751;BME280;57335;52.288;6.056;2022-12-07T08:23:33;101708.25;;;2.60;100.00
69751;BME280;57335;52.288;6.056;2022-12-07T08:26:08;101709.91;;;2.62;100.00
69751;BME280;57335;52.288;6.056;2022-12-07T08:28:35;101706.66;;;2.59;100.00
69751;BME280;57335;52.288;6.056;2022-12-07T08:31:07;101707.47;;;2.60;100.00
69751;BME280;57335;52.288;6.056;2022-12-07T08:33:35;101711.97;;;2.68;100.00
69751;BME280;57335;52.288;6.056;2022-12-07T08:36:06;101704.66;;;2.73;100.00
69751;BME280;57335;52.288;6.056;2022-12-07T08:38:37;101702.22;;;2.81;100.00
69751;BME280;57335;52.288;6.056;2022-12-07T08:41:05;101701.81;;;2.86;100.00
69751;BME280;57335;52.288;6.056;2022-12-07T08:43:32;101705.22;;;2.96;100.00
69751;BME280;57335;52.288;6.056;2022-12-07T08:46:25;101711.34;;;3.05;100.00
69751;BME280;57335;52.288;6.056;2022-12-07T08:48:56;101700.72;;;3.08;100.00
69751;BME280;57335;52.288;6.056;2022-12-07T08:51:25;101707.03;;;3.15;100.00
69751;BME280;57335;52.288;6.056;2022-12-07T08:53:52;101699.94;;;3.17;100.00
69751;BME280;57335;52.288;6.056;2022-12-07T08:56:19;101695.44;;;3.19;100.00
69751;BME280;57335;52.288;6.056;2022-12-07T08:58:46;101703.03;;;3.20;100.00
69751;BME280;57335;52.288;6.056;2022-12-07T09:01:12;101699.66;;;3.20;100.00
69751;BME280;57335;52.288;6.056;2022-12-07T09:03:39;101697.47;;;3.15;100.00
69751;BME280;57335;52.288;6.056;2022-12-07T09:06:05;101710.00;;;3.20;100.00
69751;BME280;57335;52.288;6.056;2022-12-07T09:08:35;101695.94;;;3.23;100.00
69751;BME280;57335;52.288;6.056;2022-12-07T09:11:02;101707.69;;;3.36;100.00
69751;BME280;57335;52.288;6.056;2022-12-07T09:13:29;101709.16;;;3.49;100.00
69751;BME280;57335;52.288;6.056;2022-12-07T09:15:55;101697.72;;;3.61;100.00
69751;BME280;57335;52.288;6.056;2022-12-07T09:18:22;101697.44;;;3.64;100.00
69751;BME280;57335;52.288;6.056;2022-12-07T09:20:48;101712.16;;;3.73;100.00
69751;BME280;57335;52.288;6.056;2022-12-07T09:23:14;101709.13;;;3.78;100.00
69751;BME280;57335;52.288;6.056;2022-12-07T09:25:40;101710.50;;;3.82;100.00
69751;BME280;57335;52.288;6.056;2022-12-07T09:28:07;101704.50;;;3.82;100.00
69751;BME280;57335;52.288;6.056;2022-12-07T09:30:33;101711.72;;;3.88;100.00
69751;BME280;57335;52.288;6.056;2022-12-07T09:33:18;101703.50;;;3.92;100.00
69751;BME280;57335;52.288;6.056;2022-12-07T09:35:46;101706.78;;;3.94;100.00
69751;BME280;57335;52.288;6.056;2022-12-07T09:38:12;101707.75;;;3.93;100.00
69751;BME280;57335;52.288;6.056;2022-12-07T09:40:39;101711.56;;;3.99;100.00
69751;BME280;57335;52.288;6.056;2022-12-07T09:43:12;101711.00;;;4.05;100.00
69751;BME280;57335;52.288;6.056;2022-12-07T09:45:40;101714.25;;;4.17;100.00
69751;BME280;57335;52.288;6.056;2022-12-07T09:48:18;101709.28;;;4.24;100.00
69751;BME280;57335;52.288;6.056;2022-12-07T09:50:47;101719.09;;;4.30;100.00
69751;BME280;57335;52.288;6.056;2022-12-07T09:53:29;101718.38;;;4.37;100.00
69751;BME280;57335;52.288;6.056;2022-12-07T09:55:56;101715.31;;;4.52;100.00
69751;BME280;57335;52.288;6.056;2022-12-07T09:58:25;101699.91;;;4.68;100.00
69751;BME280;57335;52.288;6.056;2022-12-07T10:00:58;101689.16;;;4.81;100.00
69751;BME280;57335;52.288;6.056;2022-12-07T10:03:29;101686.00;;;4.87;100.00
69751;BME280;57335;52.288;6.056;2022-12-07T10:05:56;101702.34;;;4.97;100.00
69751;BME280;57335;52.288;6.056;2022-12-07T10:08:24;101690.97;;;4.98;100.00
69751;BME280;57335;52.288;6.056;2022-12-07T10:10:55;101689.03;;;5.00;100.00
69751;BME280;57335;52.288;6.056;2022-12-07T10:13:36;101695.94;;;5.10;100.00
69751;BME280;57335;52.288;6.056;2022-12-07T10:16:02;101691.41;;;5.12;100.00
69751;BME280;57335;52.288;6.056;2022-12-07T10:23:35;101677.63;;;5.11;100.00
69751;BME280;57335;52.288;6.056;2022-12-07T10:28:54;101679.06;;;5.50;100.00
69751;BME280;57335;52.288;6.056;2022-12-07T10:31:22;101673.06;;;5.75;100.00
69751;BME280;57335;52.288;6.056;2022-12-07T10:36:36;101692.81;;;6.21;100.00
69751;BME280;57335;52.288;6.056;2022-12-07T10:39:13;101694.78;;;6.27;100.00
69751;BME280;57335;52.288;6.056;2022-12-07T10:42:00;101682.59;;;6.27;100.00
69751;BME280;57335;52.288;6.056;2022-12-07T10:44:29;101675.25;;;6.23;99.82
69751;BME280;57335;52.288;6.056;2022-12-07T10:47:03;101658.94;;;6.12;99.33
69751;BME280;57335;52.288;6.056;2022-12-07T10:49:44;101663.34;;;6.12;98.65
69751;BME280;57335;52.288;6.056;2022-12-07T11:00:22;101648.09;;;5.91;99.16
69751;BME280;57335;52.288;6.056;2022-12-07T11:05:59;101643.13;;;5.97;100.00
69751;BME280;57335;52.288;6.056;2022-12-07T11:09:04;101636.50;;;6.11;100.00
69751;BME280;57335;52.288;6.056;2022-12-07T11:20:37;101629.19;;;6.74;97.53
69751;BME280;57335;52.288;6.056;2022-12-07T11:23:18;101622.03;;;6.84;96.46
69751;BME280;57335;52.288;6.056;2022-12-07T11:25:54;101618.78;;;6.90;96.20
69751;BME280;57335;52.288;6.056;2022-12-07T11:28:48;101614.06;;;7.02;97.10
69751;BME280;57335;52.288;6.056;2022-12-07T11:31:24;101617.81;;;7.16;93.79
69751;BME280;57335;52.288;6.056;2022-12-07T11:34:08;101615.34;;;7.23;94.68
69751;BME280;57335;52.288;6.056;2022-12-07T11:36:41;101613.06;;;7.28;92.47
69751;BME280;57335;52.288;6.056;2022-12-07T11:41:59;101615.50;;;7.21;92.82
69751;BME280;57335;52.288;6.056;2022-12-07T11:49:44;101602.13;;;7.32;93.11
69751;BME280;57335;52.288;6.056;2022-12-07T11:52:20;101603.41;;;7.45;94.05
69751;BME280;57335;52.288;6.056;2022-12-07T11:54:50;101594.78;;;7.44;89.29
69751;BME280;57335;52.288;6.056;2022-12-07T11:57:25;101603.72;;;7.42;87.89
69751;BME280;57335;52.288;6.056;2022-12-07T11:59:59;101599.84;;;7.37;89.92
69751;BME280;57335;52.288;6.056;2022-12-07T12:02:34;101601.78;;;7.35;89.05
69751;BME280;57335;52.288;6.056;2022-12-07T12:05:13;101594.81;;;7.28;87.23
69751;BME280;57335;52.288;6.056;2022-12-07T12:07:42;101586.53;;;7.16;88.72
69751;BME280;57335;52.288;6.056;2022-12-07T12:10:41;101591.75;;;7.08;89.92
69751;BME280;57335;52.288;6.056;2022-12-07T12:19:23;101581.97;;;6.77;88.10
69751;BME280;57335;52.288;6.056;2022-12-07T12:22:12;101566.97;;;6.54;88.16
69751;BME280;57335;52.288;6.056;2022-12-07T12:24:40;101581.28;;;6.50;89.40
69751;BME280;57335;52.288;6.056;2022-12-07T12:27:18;101574.28;;;6.43;89.75
69751;BME280;57335;52.288;6.056;2022-12-07T12:29:52;101565.81;;;6.32;89.56
69751;BME280;57335;52.288;6.056;2022-12-07T12:32:36;101564.34;;;6.30;89.45
69751;BME280;57335;52.288;6.056;2022-12-07T12:35:31;101565.66;;;6.34;90.63
69751;BME280;57335;52.288;6.056;2022-12-07T12:40:46;101552.13;;;6.38;91.61
69751;BME280;57335;52.288;6.056;2022-12-07T12:43:48;101552.81;;;6.49;91.88
69751;BME280;57335;52.288;6.056;2022-12-07T12:51:43;101548.09;;;6.52;91.25
69751;BME280;57335;52.288;6.056;2022-12-07T12:54:27;101551.66;;;6.51;91.68
69751;BME280;57335;52.288;6.056;2022-12-07T13:02:27;101541.59;;;6.73;92.11
69751;BME280;57335;52.288;6.056;2022-12-07T13:13:25;101527.56;;;6.98;84.96
69751;BME280;57335;52.288;6.056;2022-12-07T13:16:39;101526.94;;;6.88;82.99
69751;BME280;57335;52.288;6.056;2022-12-07T13:18:39;101529.84;;;6.85;85.70
69751;BME280;57335;52.288;6.056;2022-12-07T13:34:01;101510.16;;;6.74;87.83
69751;BME280;57335;52.288;6.056;2022-12-07T13:36:38;101505.75;;;6.75;87.67
69751;BME280;57335;52.288;6.056;2022-12-07T13:39:32;101513.25;;;6.78;86.37
69751;BME280;57335;52.288;6.056;2022-12-07T13:42:07;101504.16;;;6.74;85.59
69751;BME280;57335;52.288;6.056;2022-12-07T13:44:41;101492.91;;;6.73;87.29
69751;BME280;57335;52.288;6.056;2022-12-07T13:47:22;101494.03;;;6.71;88.04
69751;BME280;57335;52.288;6.056;2022-12-07T13:49:54;101493.22;;;6.78;89.20
69751;BME280;57335;52.288;6.056;2022-12-07T13:52:27;101496.16;;;6.84;88.83
69751;BME280;57335;52.288;6.056;2022-12-07T13:55:20;101498.75;;;6.92;89.20
69751;BME280;57335;52.288;6.056;2022-12-07T13:57:51;101487.34;;;6.93;88.83
69751;BME280;57335;52.288;6.056;2022-12-07T14:00:26;101489.94;;;7.01;88.27
69751;BME280;57335;52.288;6.056;2022-12-07T14:05:29;101484.06;;;6.99;86.09
69751;BME280;57335;52.288;6.056;2022-12-07T14:08:05;101469.25;;;6.91;87.25
69751;BME280;57335;52.288;6.056;2022-12-07T14:10:37;101479.38;;;6.86;87.85
69751;BME280;57335;52.288;6.056;2022-12-07T14:13:24;101480.69;;;6.82;86.52
69751;BME280;57335;52.288;6.056;2022-12-07T14:15:51;101461.84;;;6.64;87.00
69751;BME280;57335;52.288;6.056;2022-12-07T14:18:29;101474.03;;;6.63;87.52
69751;BME280;57335;52.288;6.056;2022-12-07T14:23:40;101463.78;;;6.45;88.37
69751;BME280;57335;52.288;6.056;2022-12-07T14:26:13;101469.97;;;6.44;88.23
69751;BME280;57335;52.288;6.056;2022-12-07T14:28:42;101469.63;;;6.39;89.07
69751;BME280;57335;52.288;6.056;2022-12-07T14:31:12;101475.50;;;6.33;89.03
69751;BME280;57335;52.288;6.056;2022-12-07T14:33:49;101461.69;;;6.24;88.99
69751;BME280;57335;52.288;6.056;2022-12-07T14:36:15;101458.25;;;6.15;89.14
69751;BME280;57335;52.288;6.056;2022-12-07T14:38:42;101456.47;;;6.16;90.20
69751;BME280;57335;52.288;6.056;2022-12-07T14:41:17;101464.59;;;6.13;90.16
69751;BME280;57335;52.288;6.056;2022-12-07T14:43:48;101464.09;;;6.09;89.97
69751;BME280;57335;52.288;6.056;2022-12-07T14:46:35;101469.28;;;6.01;90.25
69751;BME280;57335;52.288;6.056;2022-12-07T14:49:01;101456.72;;;5.88;89.98
69751;BME280;57335;52.288;6.056;2022-12-07T14:51:48;101462.06;;;5.78;89.93
69751;BME280;57335;52.288;6.056;2022-12-07T14:54:34;101467.88;;;5.72;89.32
69751;BME280;57335;52.288;6.056;2022-12-07T14:57:00;101462.97;;;5.61;89.22
69751;BME280;57335;52.288;6.056;2022-12-07T14:59:27;101441.47;;;5.43;89.49
69751;BME280;57335;52.288;6.056;2022-12-07T15:01:53;101454.78;;;5.39;89.31
69751;BME280;57335;52.288;6.056;2022-12-07T15:04:19;101455.56;;;5.32;90.03
69751;BME280;57335;52.288;6.056;2022-12-07T15:06:56;101457.81;;;5.27;90.63
69751;BME280;57335;52.288;6.056;2022-12-07T15:09:23;101465.25;;;5.22;91.44
69751;BME280;57335;52.288;6.056;2022-12-07T15:11:49;101459.72;;;5.16;91.38
69751;BME280;57335;52.288;6.056;2022-12-07T15:14:16;101463.72;;;5.11;91.93
69751;BME280;57335;52.288;6.056;2022-12-07T15:16:42;101468.59;;;5.06;92.45
69751;BME280;57335;52.288;6.056;2022-12-07T15:19:29;101464.97;;;4.98;93.09